sensor_id;sensor_type;location;lat;lon;timestamp;pressure;altitude;pressure_sealevel;temperature;humidity
19624;BME280;9959;49.798;9.928;2023-08-06T00:00:56;98838.50;;;15.37;100.00
19624;BME280;9959;49.798;9.928;2023-08-06T00:03:23;98826.72;;;15.16;100.00
19624;BME280;9959;49.798;9.928;2023-08-06T00:05:50;98834.91;;;15.21;100.00
19624;BME280;9959;49.798;9.928;2023-08-06T00:08:17;98828.19;;;14.92;100.00
19624;BME280;9959;49.798;9.928;2023-08-06T00:10:47;98827.41;;;14.97;100.00
19624;BME280;9959;49.798;9.928;2023-08-06T00:13:14;98822.72;;;14.87;100.00
19624;BME280;9959;49.798;9.928;2023-08-06T00:15:41;98813.63;;;15.08;100.00
19624;BME280;9959;49.798;9.928;2023-08-06T00:18:08;98817.91;;;14.94;100.00
19624;BME280;9959;49.798;9.928;2023-08-06T00:20:34;98808.16;;;14.98;100.00
19624;BME280;9959;49.798;9.928;2023-08-06T00:23:01;98811.94;;;14.97;100.00
19624;BME280;9959;49.798;9.928;2023-08-06T00:25:29;98808.97;;;14.99;100.00
19624;BME280;9959;49.798;9.928;2023-08-06T00:27:55;98805.72;;;14.97;100.00
19624;BME280;9959;49.798;9.928;2023-08-06T00:30:23;98797.00;;;14.95;100.00
19624;BME280;9959;49.798;9.928;2023-08-06T00:32:50;98802.69;;;14.93;100.00
19624;BME280;9959;49.798;9.928;2023-08-06T00:35:16;98791.38;;;15.01;100.00
19624;BME280;9959;49.798;9.928;2023-08-06T00:37:43;98794.34;;;15.05;100.00
19624;BME280;9959;49.798;9.928;2023-08-06T00:40:10;98797.31;;;14.98;100.00
19624;BME280;9959;49.798;9.928;2023-08-06T00:42:37;98795.72;;;15.07;100.00
19624;BME280;9959;49.798;9.928;2023-08-06T00:45:04;98795.16;;;15.00;100.00
19624;BME280;9959;49.798;9.928;2023-08-06T00:47:31;98793.44;;;14.89;100.00
19624;BME280;9959;49.798;9.928;2023-08-06T00:49:58;98792.44;;;15.05;100.00
19624;BME280;9959;49.798;9.928;2023-08-06T00:52:25;98792.38;;;14.90;100.00
19624;BME280;9959;49.798;9.928;2023-08-06T00:54:52;98785.06;;;14.90;100.00
19624;BME280;9959;49.798;9.928;2023-08-06T00:57:20;98778.78;;;14.85;100.00
19624;BME280;9959;49.798;9.928;2023-08-06T00:59:49;98783.88;;;14.76;100.00
19624;BME280;9959;49.798;9.928;2023-08-06T01:02:16;98773.66;;;14.88;100.00
19624;BME280;9959;49.798;9.928;2023-08-06T01:04:43;98773.84;;;14.77;100.00
19624;BME280;9959;49.798;9.928;2023-08-06T01:12:42;98761.31;;;14.71;100.00
19624;BME280;9959;49.798;9.928;2023-08-06T01:18:10;98758.09;;;14.74;100.00
19624;BME280;9959;49.798;9.928;2023-08-06T01:20:37;98754.53;;;14.68;100.00
19624;BME280;9959;49.798;9.928;2023-08-06T01:23:04;98752.22;;;14.87;100.00
19624;BME280;9959;49.798;9.928;2023-08-06T01:25:37;98746.19;;;14.80;100.00
19624;BME280;9959;49.798;9.928;2023-08-06T01:28:21;98740.47;;;14.71;100.00
19624;BME280;9959;49.798;9.928;2023-08-06T01:30:50;98745.09;;;14.76;100.00
19624;BME280;9959;49.798;9.928;2023-08-06T01:33:21;98741.03;;;14.78;100.00
19624;BME280;9959;49.798;9.928;2023-08-06T01:35:49;98738.03;;;14.75;100.00
19624;BME280;9959;49.798;9.928;2023-08-06T01:38:17;98736.59;;;14.62;100.00
19624;BME280;9959;49.798;9.928;2023-08-06T01:40:43;98739.81;;;14.59;100.00
19624;BME280;9959;49.798;9.928;2023-08-06T01:43:10;98738.69;;;14.55;100.00
19624;BME280;9959;49.798;9.928;2023-08-06T01:45:37;98735.03;;;14.71;100.00
19624;BME280;9959;49.798;9.928;2023-08-06T01:48:04;98727.34;;;14.58;100.00
19624;BME280;9959;49.798;9.928;2023-08-06T01:50:31;98731.47;;;14.66;100.00
19624;BME280;9959;49.798;9.928;2023-08-06T01:52:59;98728.38;;;14.52;100.00
19624;BME280;9959;49.798;9.928;2023-08-06T01:55:26;98727.56;;;14.51;100.00
19624;BME280;9959;49.798;9.928;2023-08-06T01:57:52;98720.41;;;14.40;100.00
19624;BME280;9959;49.798;9.928;2023-08-06T02:00:19;98721.94;;;14.31;100.00
19624;BME280;9959;49.798;9.928;2023-08-06T02:02:46;98731.34;;;14.23;100.00
19624;BME280;9959;49.798;9.928;2023-08-06T02:05:13;98730.53;;;14.23;100.00
19624;BME280;9959;49.798;9.928;2023-08-06T02:07:40;98722.56;;;14.38;100.00
19624;BME280;9959;49.798;9.928;2023-08-06T02:10:07;98718.69;;;14.29;100.00
19624;BME280;9959;49.798;9.928;2023-08-06T02:12:34;98705.63;;;14.21;100.00
19624;BME280;9959;49.798;9.928;2023-08-06T02:15:02;98708.34;;;14.21;100.00
19624;BME280;9959;49.798;9.928;2023-08-06T02:17:29;98711.47;;;14.08;100.00
19624;BME280;9959;49.798;9.928;2023-08-06T02:19:56;98709.94;;;13.90;100.00
19624;BME280;9959;49.798;9.928;2023-08-06T02:22:22;98709.47;;;13.98;100.00
19624;BME280;9959;49.798;9.928;2023-08-06T02:24:49;98704.72;;;14.10;100.00
19624;BME280;9959;49.798;9.928;2023-08-06T02:27:16;98693.78;;;14.00;100.00
19624;BME280;9959;49.798;9.928;2023-08-06T02:29:43;98693.53;;;14.02;100.00
19624;BME280;9959;49.798;9.928;2023-08-06T02:32:11;98685.09;;;13.98;100.00
19624;BME280;9959;49.798;9.928;2023-08-06T02:34:38;98686.97;;;13.93;100.00
19624;BME280;9959;49.798;9.928;2023-08-06T02:37:05;98687.09;;;14.08;100.00
19624;BME280;9959;49.798;9.928;2023-08-06T02:39:32;98684.06;;;14.04;100.00
19624;BME280;9959;49.798;9.928;2023-08-06T02:42:00;98688.16;;;14.07;100.00
19624;BME280;9959;49.798;9.928;2023-08-06T02:44:27;98687.03;;;14.03;100.00
19624;BME280;9959;49.798;9.928;2023-08-06T02:46:54;98685.41;;;14.02;100.00
19624;BME280;9959;49.798;9.928;2023-08-06T02:49:21;98677.31;;;14.07;100.00
19624;BME280;9959;49.798;9.928;2023-08-06T02:51:48;98670.22;;;14.01;100.00
19624;BME280;9959;49.798;9.928;2023-08-06T02:54:15;98667.00;;;14.04;100.00
19624;BME280;9959;49.798;9.928;2023-08-06T02:56:45;98670.28;;;14.06;100.00
19624;BME280;9959;49.798;9.928;2023-08-06T02:59:13;98662.09;;;14.01;100.00
19624;BME280;9959;49.798;9.928;2023-08-06T03:01:40;98664.00;;;14.00;100.00
19624;BME280;9959;49.798;9.928;2023-08-06T03:04:06;98665.16;;;14.09;100.00
19624;BME280;9959;49.798;9.928;2023-08-06T03:06:33;98658.41;;;14.12;100.00
19624;BME280;9959;49.798;9.928;2023-08-06T03:09:00;98655.88;;;14.00;100.00
19624;BME280;9959;49.798;9.928;2023-08-06T03:11:27;98661.59;;;14.04;100.00
19624;BME280;9959;49.798;9.928;2023-08-06T03:13:54;98651.06;;;14.07;100.00
19624;BME280;9959;49.798;9.928;2023-08-06T03:16:21;98657.19;;;13.98;100.00
19624;BME280;9959;49.798;9.928;2023-08-06T03:18:48;98655.06;;;14.00;100.00
19624;BME280;9959;49.798;9.928;2023-08-06T03:21:15;98645.34;;;14.04;100.00
19624;BME280;9959;49.798;9.928;2023-08-06T03:23:41;98643.50;;;14.09;100.00
19624;BME280;9959;49.798;9.928;2023-08-06T03:26:09;98642.72;;;14.14;100.00
19624;BME280;9959;49.798;9.928;2023-08-06T03:28:35;98641.66;;;14.15;100.00
19624;BME280;9959;49.798;9.928;2023-08-06T03:31:03;98638.97;;;14.20;100.00
19624;BME280;9959;49.798;9.928;2023-08-06T03:33:30;98637.63;;;14.22;100.00
19624;BME280;9959;49.798;9.928;2023-08-06T03:35:57;98631.94;;;14.19;100.00
19624;BME280;9959;49.798;9.928;2023-08-06T03:38:24;98635.09;;;14.11;100.00
19624;BME280;9959;49.798;9.928;2023-08-06T03:40:51;98635.16;;;14.16;100.00
19624;BME280;9959;49.798;9.928;2023-08-06T03:43:18;98640.88;;;14.24;100.00
19624;BME280;9959;49.798;9.928;2023-08-06T03:45:45;98625.91;;;14.12;100.00
19624;BME280;9959;49.798;9.928;2023-08-06T03:48:12;98632.50;;;14.21;100.00
19624;BME280;9959;49.798;9.928;2023-08-06T03:50:39;98630.81;;;14.15;100.00
19624;BME280;9959;49.798;9.928;2023-08-06T03:53:06;98624.19;;;14.01;100.00
19624;BME280;9959;49.798;9.928;2023-08-06T03:55:32;98622.53;;;13.95;100.00
19624;BME280;9959;49.798;9.928;2023-08-06T03:57:59;98619.03;;;13.99;100.00
19624;BME280;9959;49.798;9.928;2023-08-06T04:00:26;98618.19;;;13.94;100.00
19624;BME280;9959;49.798;9.928;2023-08-06T04:02:53;98615.91;;;13.80;100.00
19624;BME280;9959;49.798;9.928;2023-08-06T04:05:20;98611.16;;;13.93;100.00
19624;BME280;9959;49.798;9.928;2023-08-06T04:07:47;98617.28;;;13.83;100.00
19624;BME280;9959;49.798;9.928;2023-08-06T04:10:14;98609.78;;;13.95;100.00
19624;BME280;9959;49.798;9.928;2023-08-06T04:12:41;98614.56;;;13.83;100.00
19624;BME280;9959;49.798;9.928;2023-08-06T04:15:08;98615.34;;;13.78;100.00
19624;BME280;9959;49.798;9.928;2023-08-06T04:17:35;98611.50;;;13.74;100.00
19624;BME280;9959;49.798;9.928;2023-08-06T04:20:02;98615.84;;;13.75;100.00
19624;BME280;9959;49.798;9.928;2023-08-06T04:22:29;98621.28;;;13.75;100.00
19624;BME280;9959;49.798;9.928;2023-08-06T04:24:56;98610.84;;;13.89;100.00
19624;BME280;9959;49.798;9.928;2023-08-06T04:27:23;98616.31;;;13.94;100.00
19624;BME280;9959;49.798;9.928;2023-08-06T04:29:49;98608.94;;;13.89;100.00
19624;BME280;9959;49.798;9.928;2023-08-06T04:32:16;98607.31;;;13.88;100.00
19624;BME280;9959;49.798;9.928;2023-08-06T04:34:46;98610.59;;;13.96;100.00
19624;BME280;9959;49.798;9.928;2023-08-06T04:37:13;98608.69;;;13.91;100.00
19624;BME280;9959;49.798;9.928;2023-08-06T04:39:40;98608.25;;;14.04;100.00
19624;BME280;9959;49.798;9.928;2023-08-06T04:42:07;98605.53;;;14.04;100.00
19624;BME280;9959;49.798;9.928;2023-08-06T04:44:33;98607.50;;;14.14;100.00
19624;BME280;9959;49.798;9.928;2023-08-06T04:47:01;98601.28;;;14.13;100.00
19624;BME280;9959;49.798;9.928;2023-08-06T04:49:27;98610.31;;;14.29;100.00
19624;BME280;9959;49.798;9.928;2023-08-06T04:51:54;98612.19;;;14.29;100.00
19624;BME280;9959;49.798;9.928;2023-08-06T04:54:21;98600.59;;;14.33;100.00
19624;BME280;9959;49.798;9.928;2023-08-06T04:56:48;98600.63;;;14.38;100.00
19624;BME280;9959;49.798;9.928;2023-08-06T04:59:15;98602.31;;;14.44;100.00
19624;BME280;9959;49.798;9.928;2023-08-06T05:01:41;98596.91;;;14.44;100.00
19624;BME280;9959;49.798;9.928;2023-08-06T05:04:08;98595.56;;;14.52;100.00
19624;BME280;9959;49.798;9.928;2023-08-06T05:06:35;98594.25;;;14.60;100.00
19624;BME280;9959;49.798;9.928;2023-08-06T05:09:04;98598.09;;;14.69;100.00
19624;BME280;9959;49.798;9.928;2023-08-06T05:11:32;98598.13;;;14.74;100.00
19624;BME280;9959;49.798;9.928;2023-08-06T05:13:59;98590.59;;;14.91;100.00
19624;BME280;9959;49.798;9.928;2023-08-06T05:16:26;98597.66;;;14.92;100.00
19624;BME280;9959;49.798;9.928;2023-08-06T05:18:53;98602.59;;;15.00;100.00
19624;BME280;9959;49.798;9.928;2023-08-06T05:21:20;98605.06;;;15.17;100.00
19624;BME280;9959;49.798;9.928;2023-08-06T05:23:47;98603.13;;;15.07;100.00
19624;BME280;9959;49.798;9.928;2023-08-06T05:26:14;98606.94;;;15.01;100.00
19624;BME280;9959;49.798;9.928;2023-08-06T05:28:45;98605.31;;;15.10;100.00
19624;BME280;9959;49.798;9.928;2023-08-06T05:31:12;98600.69;;;15.06;100.00
19624;BME280;9959;49.798;9.928;2023-08-06T05:33:39;98601.78;;;15.10;100.00
19624;BME280;9959;49.798;9.928;2023-08-06T05:36:06;98602.03;;;15.08;100.00
19624;BME280;9959;49.798;9.928;2023-08-06T05:38:33;98593.69;;;15.20;100.00
19624;BME280;9959;49.798;9.928;2023-08-06T05:40:59;98597.75;;;15.33;100.00
19624;BME280;9959;49.798;9.928;2023-08-06T05:43:26;98594.81;;;15.44;100.00
19624;BME280;9959;49.798;9.928;2023-08-06T05:45:54;98595.16;;;15.68;100.00
19624;BME280;9959;49.798;9.928;2023-08-06T05:48:21;98588.91;;;15.78;100.00
19624;BME280;9959;49.798;9.928;2023-08-06T05:50:49;98585.91;;;15.89;100.00
19624;BME280;9959;49.798;9.928;2023-08-06T05:53:16;98587.78;;;16.24;100.00
19624;BME280;9959;49.798;9.928;2023-08-06T05:55:43;98580.09;;;16.52;100.00
19624;BME280;9959;49.798;9.928;2023-08-06T05:58:09;98581.78;;;16.33;100.00
19624;BME280;9959;49.798;9.928;2023-08-06T06:00:36;98577.47;;;16.21;100.00
19624;BME280;9959;49.798;9.928;2023-08-06T06:03:03;98579.34;;;16.21;100.00
19624;BME280;9959;49.798;9.928;2023-08-06T06:05:30;98582.06;;;16.21;100.00
19624;BME280;9959;49.798;9.928;2023-08-06T06:07:57;98585.34;;;16.33;100.00
19624;BME280;9959;49.798;9.928;2023-08-06T06:10:24;98587.50;;;16.31;100.00
19624;BME280;9959;49.798;9.928;2023-08-06T06:12:50;98582.63;;;16.28;100.00
19624;BME280;9959;49.798;9.928;2023-08-06T06:15:17;98584.78;;;16.16;98.92
19624;BME280;9959;49.798;9.928;2023-08-06T06:17:44;98580.44;;;16.25;100.00
19624;BME280;9959;49.798;9.928;2023-08-06T06:20:11;98588.09;;;16.08;99.90
19624;BME280;9959;49.798;9.928;2023-08-06T06:22:38;98592.44;;;16.09;100.00
19624;BME280;9959;49.798;9.928;2023-08-06T06:25:05;98594.06;;;16.05;100.00
19624;BME280;9959;49.798;9.928;2023-08-06T06:27:32;98590.00;;;16.07;100.00
19624;BME280;9959;49.798;9.928;2023-08-06T06:29:59;98587.00;;;15.99;100.00
19624;BME280;9959;49.798;9.928;2023-08-06T06:32:26;98584.81;;;16.06;100.00
19624;BME280;9959;49.798;9.928;2023-08-06T06:34:53;98585.34;;;16.18;100.00
19624;BME280;9959;49.798;9.928;2023-08-06T06:37:21;98582.38;;;16.04;100.00
19624;BME280;9959;49.798;9.928;2023-08-06T06:39:47;98587.50;;;16.26;100.00
19624;BME280;9959;49.798;9.928;2023-08-06T06:42:14;98591.06;;;15.91;100.00
19624;BME280;9959;49.798;9.928;2023-08-06T06:44:41;98590.28;;;15.85;100.00
19624;BME280;9959;49.798;9.928;2023-08-06T06:47:08;98586.75;;;15.80;100.00
19624;BME280;9959;49.798;9.928;2023-08-06T06:49:35;98597.59;;;16.00;100.00
19624;BME280;9959;49.798;9.928;2023-08-06T06:52:02;98596.25;;;16.03;100.00
19624;BME280;9959;49.798;9.928;2023-08-06T06:54:29;98596.22;;;16.18;100.00
19624;BME280;9959;49.798;9.928;2023-08-06T06:56:56;98596.50;;;16.06;100.00
19624;BME280;9959;49.798;9.928;2023-08-06T06:59:23;98592.34;;;16.49;99.94
19624;BME280;9959;49.798;9.928;2023-08-06T07:01:49;98585.88;;;16.20;100.00
19624;BME280;9959;49.798;9.928;2023-08-06T07:04:17;98601.91;;;16.16;99.65
19624;BME280;9959;49.798;9.928;2023-08-06T07:06:44;98598.91;;;16.28;100.00
19624;BME280;9959;49.798;9.928;2023-08-06T07:09:10;98592.97;;;16.06;100.00
19624;BME280;9959;49.798;9.928;2023-08-06T07:11:37;98605.19;;;16.18;100.00
19624;BME280;9959;49.798;9.928;2023-08-06T07:14:04;98604.38;;;16.08;100.00
19624;BME280;9959;49.798;9.928;2023-08-06T07:16:31;98604.38;;;15.87;100.00
19624;BME280;9959;49.798;9.928;2023-08-06T07:18:58;98599.75;;;16.29;99.23
19624;BME280;9959;49.798;9.928;2023-08-06T07:21:25;98599.72;;;16.39;98.39
19624;BME280;9959;49.798;9.928;2023-08-06T07:23:51;98597.25;;;16.47;96.36
19624;BME280;9959;49.798;9.928;2023-08-06T07:26:18;98599.22;;;16.11;97.69
19624;BME280;9959;49.798;9.928;2023-08-06T07:28:45;98598.13;;;16.17;97.21
19624;BME280;9959;49.798;9.928;2023-08-06T07:31:12;98598.38;;;16.21;96.89
19624;BME280;9959;49.798;9.928;2023-08-06T07:33:39;98594.03;;;16.30;96.96
19624;BME280;9959;49.798;9.928;2023-08-06T07:36:11;98595.59;;;16.51;95.99
19624;BME280;9959;49.798;9.928;2023-08-06T07:38:38;98598.88;;;16.64;95.89
19624;BME280;9959;49.798;9.928;2023-08-06T07:41:05;98605.50;;;17.07;93.23
19624;BME280;9959;49.798;9.928;2023-08-06T07:43:32;98602.06;;;16.81;93.83
19624;BME280;9959;49.798;9.928;2023-08-06T07:45:59;98595.00;;;16.85;93.52
19624;BME280;9959;49.798;9.928;2023-08-06T07:48:29;98602.31;;;16.89;92.65
19624;BME280;9959;49.798;9.928;2023-08-06T07:50:57;98592.84;;;16.72;92.19
19624;BME280;9959;49.798;9.928;2023-08-06T07:53:25;98593.44;;;16.48;93.36
19624;BME280;9959;49.798;9.928;2023-08-06T07:55:56;98591.78;;;16.57;91.77
19624;BME280;9959;49.798;9.928;2023-08-06T07:58:24;98588.53;;;16.66;92.79
19624;BME280;9959;49.798;9.928;2023-08-06T08:00:52;98584.19;;;16.65;93.14
19624;BME280;9959;49.798;9.928;2023-08-06T08:03:19;98586.34;;;16.52;94.53
19624;BME280;9959;49.798;9.928;2023-08-06T08:05:46;98582.94;;;17.01;92.37
19624;BME280;9959;49.798;9.928;2023-08-06T08:08:13;98591.31;;;16.35;94.68
19624;BME280;9959;49.798;9.928;2023-08-06T08:10:41;98584.78;;;16.26;96.72
19624;BME280;9959;49.798;9.928;2023-08-06T08:13:08;98585.88;;;16.25;98.50
19624;BME280;9959;49.798;9.928;2023-08-06T08:15:36;98592.44;;;15.99;100.00
19624;BME280;9959;49.798;9.928;2023-08-06T08:18:03;98586.31;;;15.10;100.00
19624;BME280;9959;49.798;9.928;2023-08-06T08:20:30;98591.22;;;15.13;100.00
19624;BME280;9959;49.798;9.928;2023-08-06T08:23:02;98589.59;;;15.17;100.00
19624;BME280;9959;49.798;9.928;2023-08-06T08:25:29;98592.34;;;15.28;100.00
19624;BME280;9959;49.798;9.928;2023-08-06T08:27:58;98586.94;;;15.43;100.00
19624;BME280;9959;49.798;9.928;2023-08-06T08:30:25;98586.47;;;15.56;100.00
19624;BME280;9959;49.798;9.928;2023-08-06T08:32:52;98583.16;;;15.44;100.00
19624;BME280;9959;49.798;9.928;2023-08-06T08:35:19;98588.63;;;15.64;100.00
19624;BME280;9959;49.798;9.928;2023-08-06T08:37:46;98585.38;;;15.98;100.00
19624;BME280;9959;49.798;9.928;2023-08-06T08:40:14;98587.53;;;16.01;100.00
19624;BME280;9959;49.798;9.928;2023-08-06T08:42:42;98603.31;;;16.04;100.00
19624;BME280;9959;49.798;9.928;2023-08-06T08:45:12;98583.19;;;16.00;100.00
19624;BME280;9959;49.798;9.928;2023-08-06T08:47:43;98590.22;;;16.31;100.00
19624;BME280;9959;49.798;9.928;2023-08-06T08:50:10;98590.72;;;16.53;100.00
19624;BME280;9959;49.798;9.928;2023-08-06T08:52:42;98585.75;;;16.81;100.00
19624;BME280;9959;49.798;9.928;2023-08-06T08:55:14;98584.00;;;17.05;99.67
19624;BME280;9959;49.798;9.928;2023-08-06T08:57:42;98594.34;;;17.08;97.58
19624;BME280;9959;49.798;9.928;2023-08-06T09:00:09;98589.22;;;16.97;94.87
19624;BME280;9959;49.798;9.928;2023-08-06T09:02:37;98586.31;;;17.32;92.54
19624;BME280;9959;49.798;9.928;2023-08-06T09:05:06;98581.22;;;17.65;91.33
19624;BME280;9959;49.798;9.928;2023-08-06T09:07:47;98585.84;;;17.59;91.42
19624;BME280;9959;49.798;9.928;2023-08-06T09:10:16;98577.72;;;17.54;90.86
19624;BME280;9959;49.798;9.928;2023-08-06T09:12:44;98584.25;;;17.97;88.29
19624;BME280;9959;49.798;9.928;2023-08-06T09:15:11;98580.88;;;17.76;88.86
19624;BME280;9959;49.798;9.928;2023-08-06T09:17:40;98581.25;;;17.54;89.31
19624;BME280;9959;49.798;9.928;2023-08-06T09:20:13;98590.72;;;17.72;90.72
19624;BME280;9959;49.798;9.928;2023-08-06T09:22:41;98588.88;;;17.13;95.82
19624;BME280;9959;49.798;9.928;2023-08-06T09:25:08;98575.25;;;17.18;98.19
19624;BME280;9959;49.798;9.928;2023-08-06T09:27:40;98585.63;;;17.11;95.49
19624;BME280;9959;49.798;9.928;2023-08-06T09:30:07;98580.59;;;17.29;92.44
19624;BME280;9959;49.798;9.928;2023-08-06T09:32:47;98582.56;;;17.23;91.87
19624;BME280;9959;49.798;9.928;2023-08-06T09:35:18;98588.25;;;17.26;91.40
19624;BME280;9959;49.798;9.928;2023-08-06T09:37:45;98590.94;;;17.32;91.23
19624;BME280;9959;49.798;9.928;2023-08-06T09:40:28;98587.50;;;17.60;91.21
19624;BME280;9959;49.798;9.928;2023-08-06T09:42:55;98576.56;;;18.04;88.71
19624;BME280;9959;49.798;9.928;2023-08-06T09:45:23;98581.56;;;18.21;86.94
19624;BME280;9959;49.798;9.928;2023-08-06T09:47:58;98578.56;;;18.46;89.28
19624;BME280;9959;49.798;9.928;2023-08-06T09:50:29;98577.47;;;18.47;87.75
19624;BME280;9959;49.798;9.928;2023-08-06T09:52:58;98571.25;;;18.42;86.38
19624;BME280;9959;49.798;9.928;2023-08-06T09:55:26;98566.97;;;19.45;83.30
19624;BME280;9959;49.798;9.928;2023-08-06T09:57:53;98554.56;;;19.71;78.45
19624;BME280;9959;49.798;9.928;2023-08-06T10:00:22;98555.31;;;19.58;77.62
19624;BME280;9959;49.798;9.928;2023-08-06T10:02:49;98553.47;;;19.53;75.66
19624;BME280;9959;49.798;9.928;2023-08-06T10:05:20;98562.25;;;19.32;77.23
19624;BME280;9959;49.798;9.928;2023-08-06T10:07:49;98546.09;;;19.35;77.75
19624;BME280;9959;49.798;9.928;2023-08-06T10:10:17;98548.25;;;19.57;75.81
19624;BME280;9959;49.798;9.928;2023-08-06T10:12:49;98544.53;;;19.10;78.84
19624;BME280;9959;49.798;9.928;2023-08-06T10:15:21;98536.94;;;19.26;78.38
19624;BME280;9959;49.798;9.928;2023-08-06T10:17:51;98536.75;;;18.80;81.48
19624;BME280;9959;49.798;9.928;2023-08-06T10:20:19;98533.63;;;18.15;85.58
19624;BME280;9959;49.798;9.928;2023-08-06T10:23:05;98540.22;;;18.09;94.42
19624;BME280;9959;49.798;9.928;2023-08-06T10:25:35;98536.19;;;17.77;99.90
19624;BME280;9959;49.798;9.928;2023-08-06T10:28:11;98537.66;;;17.93;96.98
19624;BME280;9959;49.798;9.928;2023-08-06T10:30:45;98528.72;;;19.26;88.00
19624;BME280;9959;49.798;9.928;2023-08-06T10:33:13;98536.72;;;19.41;83.31
19624;BME280;9959;49.798;9.928;2023-08-06T10:38:12;98531.03;;;19.89;79.26
19624;BME280;9959;49.798;9.928;2023-08-06T10:41:03;98539.38;;;19.65;75.60
19624;BME280;9959;49.798;9.928;2023-08-06T10:43:35;98525.38;;;19.85;73.91
19624;BME280;9959;49.798;9.928;2023-08-06T10:46:10;98523.53;;;19.81;72.09
19624;BME280;9959;49.798;9.928;2023-08-06T10:48:39;98515.66;;;20.39;69.38
19624;BME280;9959;49.798;9.928;2023-08-06T10:51:10;98508.47;;;21.20;66.39
19624;BME280;9959;49.798;9.928;2023-08-06T10:53:42;98507.56;;;21.11;63.82
19624;BME280;9959;49.798;9.928;2023-08-06T10:56:16;98510.19;;;20.67;66.23
19624;BME280;9959;49.798;9.928;2023-08-06T10:58:44;98511.63;;;19.72;71.44
19624;BME280;9959;49.798;9.928;2023-08-06T11:01:12;98520.03;;;19.62;73.29
19624;BME280;9959;49.798;9.928;2023-08-06T11:03:39;98512.72;;;21.26;64.78
19624;BME280;9959;49.798;9.928;2023-08-06T11:06:07;98518.84;;;20.27;69.67
19624;BME280;9959;49.798;9.928;2023-08-06T11:08:35;98508.22;;;19.66;74.35
19624;BME280;9959;49.798;9.928;2023-08-06T11:11:12;98514.16;;;18.50;89.90
19624;BME280;9959;49.798;9.928;2023-08-06T11:13:41;98511.31;;;18.60;93.19
19624;BME280;9959;49.798;9.928;2023-08-06T11:16:09;98510.69;;;19.44;86.59
19624;BME280;9959;49.798;9.928;2023-08-06T11:18:36;98505.13;;;19.86;79.97
19624;BME280;9959;49.798;9.928;2023-08-06T11:21:03;98508.47;;;19.97;78.74
19624;BME280;9959;49.798;9.928;2023-08-06T11:23:30;98502.56;;;20.64;73.79
19624;BME280;9959;49.798;9.928;2023-08-06T11:25:57;98502.31;;;21.37;70.13
19624;BME280;9959;49.798;9.928;2023-08-06T11:28:25;98490.13;;;21.88;66.78
19624;BME280;9959;49.798;9.928;2023-08-06T11:30:52;98492.44;;;21.50;69.01
19624;BME280;9959;49.798;9.928;2023-08-06T11:33:23;98504.13;;;21.64;65.63
19624;BME280;9959;49.798;9.928;2023-08-06T11:35:52;98481.41;;;22.65;62.36
19624;BME280;9959;49.798;9.928;2023-08-06T11:38:19;98482.13;;;22.31;62.75
19624;BME280;9959;49.798;9.928;2023-08-06T11:40:50;98481.84;;;23.41;60.46
19624;BME280;9959;49.798;9.928;2023-08-06T11:43:19;98481.88;;;22.58;61.44
19624;BME280;9959;49.798;9.928;2023-08-06T11:45:48;98469.69;;;22.99;61.33
19624;BME280;9959;49.798;9.928;2023-08-06T11:48:15;98471.66;;;23.07;59.71
19624;BME280;9959;49.798;9.928;2023-08-06T11:50:42;98468.97;;;22.11;60.94
19624;BME280;9959;49.798;9.928;2023-08-06T11:53:12;98490.06;;;20.99;66.61
19624;BME280;9959;49.798;9.928;2023-08-06T11:55:41;98512.81;;;19.52;75.12
19624;BME280;9959;49.798;9.928;2023-08-06T11:58:09;98511.69;;;17.38;100.00
19624;BME280;9959;49.798;9.928;2023-08-06T12:00:36;98505.00;;;16.71;100.00
19624;BME280;9959;49.798;9.928;2023-08-06T12:03:04;98513.09;;;16.12;100.00
19624;BME280;9959;49.798;9.928;2023-08-06T12:05:32;98501.00;;;16.48;100.00
19624;BME280;9959;49.798;9.928;2023-08-06T12:08:02;98495.66;;;16.92;100.00
19624;BME280;9959;49.798;9.928;2023-08-06T12:10:31;98498.53;;;17.11;100.00
19624;BME280;9959;49.798;9.928;2023-08-06T12:12:59;98494.78;;;16.97;100.00
19624;BME280;9959;49.798;9.928;2023-08-06T12:15:26;98499.50;;;17.25;100.00
19624;BME280;9959;49.798;9.928;2023-08-06T12:17:53;98499.16;;;17.37;100.00
19624;BME280;9959;49.798;9.928;2023-08-06T12:20:20;98497.03;;;17.63;100.00
19624;BME280;9959;49.798;9.928;2023-08-06T12:22:47;98496.88;;;18.84;100.00
19624;BME280;9959;49.798;9.928;2023-08-06T12:25:14;98491.25;;;19.32;100.00
19624;BME280;9959;49.798;9.928;2023-08-06T12:27:42;98500.47;;;18.98;100.00
19624;BME280;9959;49.798;9.928;2023-08-06T12:30:10;98499.44;;;18.04;100.00
19624;BME280;9959;49.798;9.928;2023-08-06T12:32:38;98517.16;;;17.33;100.00
19624;BME280;9959;49.798;9.928;2023-08-06T12:35:05;98512.66;;;17.13;100.00
19624;BME280;9959;49.798;9.928;2023-08-06T12:37:34;98514.84;;;17.11;100.00
19624;BME280;9959;49.798;9.928;2023-08-06T12:40:02;98524.84;;;17.65;100.00
19624;BME280;9959;49.798;9.928;2023-08-06T12:42:50;98518.38;;;17.51;100.00
19624;BME280;9959;49.798;9.928;2023-08-06T12:45:17;98524.94;;;17.50;100.00
19624;BME280;9959;49.798;9.928;2023-08-06T12:47:48;98512.72;;;17.03;100.00
19624;BME280;9959;49.798;9.928;2023-08-06T12:50:16;98511.44;;;16.96;100.00
19624;BME280;9959;49.798;9.928;2023-08-06T12:52:44;98510.97;;;16.78;100.00
19624;BME280;9959;49.798;9.928;2023-08-06T12:55:11;98522.66;;;16.79;100.00
19624;BME280;9959;49.798;9.928;2023-08-06T12:57:38;98526.97;;;16.85;100.00
19624;BME280;9959;49.798;9.928;2023-08-06T13:00:23;98536.84;;;16.61;100.00
19624;BME280;9959;49.798;9.928;2023-08-06T13:02:50;98544.78;;;16.47;100.00
19624;BME280;9959;49.798;9.928;2023-08-06T13:05:17;98538.84;;;16.40;100.00
19624;BME280;9959;49.798;9.928;2023-08-06T13:07:44;98543.13;;;16.66;100.00
19624;BME280;9959;49.798;9.928;2023-08-06T13:10:10;98543.91;;;16.62;100.00
19624;BME280;9959;49.798;9.928;2023-08-06T13:12:38;98560.06;;;16.28;100.00
19624;BME280;9959;49.798;9.928;2023-08-06T13:15:05;98554.94;;;16.01;100.00
19624;BME280;9959;49.798;9.928;2023-08-06T13:17:32;98558.78;;;15.79;100.00